sensor_id;sensor_type;location;lat;lon;timestamp;temperature;humidity
34953;DHT22;21164;54.378;10.202;2022-08-24T00:01:14;19.20;99.90
34953;DHT22;21164;54.378;10.202;2022-08-24T00:03:40;19.10;99.90
34953;DHT22;21164;54.378;10.202;2022-08-24T00:06:09;19.10;99.90
34953;DHT22;21164;54.378;10.202;2022-08-24T00:08:36;19.00;99.90
34953;DHT22;21164;54.378;10.202;2022-08-24T00:11:02;19.00;99.90
34953;DHT22;21164;54.378;10.202;2022-08-24T00:13:28;18.90;99.90
34953;DHT22;21164;54.378;10.202;2022-08-24T00:15:55;18.90;99.90
34953;DHT22;21164;54.378;10.202;2022-08-24T00:18:21;18.90;99.90
34953;DHT22;21164;54.378;10.202;2022-08-24T00:20:46;18.90;99.90
34953;DHT22;21164;54.378;10.202;2022-08-24T00:23:12;18.90;99.90
34953;DHT22;21164;54.378;10.202;2022-08-24T00:25:38;18.90;99.90
34953;DHT22;21164;54.378;10.202;2022-08-24T00:28:04;18.90;99.90
34953;DHT22;21164;54.378;10.202;2022-08-24T00:30:30;18.90;99.90
34953;DHT22;21164;54.378;10.202;2022-08-24T00:32:56;18.80;99.90
34953;DHT22;21164;54.378;10.202;2022-08-24T00:35:22;18.80;99.90
34953;DHT22;21164;54.378;10.202;2022-08-24T00:37:49;18.90;99.90
34953;DHT22;21164;54.378;10.202;2022-08-24T00:40:37;18.90;99.90
34953;DHT22;21164;54.378;10.202;2022-08-24T00:43:06;18.90;99.90
34953;DHT22;21164;54.378;10.202;2022-08-24T00:45:41;18.90;99.90
34953;DHT22;21164;54.378;10.202;2022-08-24T00:48:15;18.90;99.90
34953;DHT22;21164;54.378;10.202;2022-08-24T00:50:58;18.90;99.90
34953;DHT22;21164;54.378;10.202;2022-08-24T00:55:58;18.90;99.90
34953;DHT22;21164;54.378;10.202;2022-08-24T00:58:33;18.80;99.90
34953;DHT22;21164;54.378;10.202;2022-08-24T01:01:01;18.80;99.90
34953;DHT22;21164;54.378;10.202;2022-08-24T01:03:29;18.80;99.90
34953;DHT22;21164;54.378;10.202;2022-08-24T01:05:57;18.80;99.90
34953;DHT22;21164;54.378;10.202;2022-08-24T01:08:24;18.80;99.90
34953;DHT22;21164;54.378;10.202;2022-08-24T01:10:54;18.70;99.90
34953;DHT22;21164;54.378;10.202;2022-08-24T01:13:21;18.70;99.90
34953;DHT22;21164;54.378;10.202;2022-08-24T01:15:51;18.70;99.90
34953;DHT22;21164;54.378;10.202;2022-08-24T01:18:23;18.60;99.90
34953;DHT22;21164;54.378;10.202;2022-08-24T01:23:45;18.40;99.90
34953;DHT22;21164;54.378;10.202;2022-08-24T01:26:16;18.40;99.90
34953;DHT22;21164;54.378;10.202;2022-08-24T01:28:46;18.30;99.90
34953;DHT22;21164;54.378;10.202;2022-08-24T01:31:13;18.30;99.90
34953;DHT22;21164;54.378;10.202;2022-08-24T01:33:40;18.30;99.90
34953;DHT22;21164;54.378;10.202;2022-08-24T01:36:21;18.30;99.90
34953;DHT22;21164;54.378;10.202;2022-08-24T01:38:50;18.20;99.90
34953;DHT22;21164;54.378;10.202;2022-08-24T01:41:16;18.20;99.90
34953;DHT22;21164;54.378;10.202;2022-08-24T01:43:41;18.20;99.90
34953;DHT22;21164;54.378;10.202;2022-08-24T01:46:07;18.20;99.90
34953;DHT22;21164;54.378;10.202;2022-08-24T01:48:33;18.30;99.90
34953;DHT22;21164;54.378;10.202;2022-08-24T01:50:58;18.20;99.90
34953;DHT22;21164;54.378;10.202;2022-08-24T01:53:24;18.20;99.90
34953;DHT22;21164;54.378;10.202;2022-08-24T01:55:50;18.10;99.90
34953;DHT22;21164;54.378;10.202;2022-08-24T01:58:15;18.10;99.90
34953;DHT22;21164;54.378;10.202;2022-08-24T02:00:41;18.10;99.90
34953;DHT22;21164;54.378;10.202;2022-08-24T02:03:08;18.10;99.90
34953;DHT22;21164;54.378;10.202;2022-08-24T02:05:33;18.00;99.90
34953;DHT22;21164;54.378;10.202;2022-08-24T02:07:59;17.90;99.90
34953;DHT22;21164;54.378;10.202;2022-08-24T02:10:25;17.90;99.90
34953;DHT22;21164;54.378;10.202;2022-08-24T02:12:52;17.90;99.90
34953;DHT22;21164;54.378;10.202;2022-08-24T02:17:54;17.90;99.90
34953;DHT22;21164;54.378;10.202;2022-08-24T02:20:20;17.80;99.90
34953;DHT22;21164;54.378;10.202;2022-08-24T02:22:47;17.80;99.90
34953;DHT22;21164;54.378;10.202;2022-08-24T02:25:13;17.90;99.90
34953;DHT22;21164;54.378;10.202;2022-08-24T02:27:39;17.90;99.90
34953;DHT22;21164;54.378;10.202;2022-08-24T02:30:05;17.80;99.90
34953;DHT22;21164;54.378;10.202;2022-08-24T02:32:30;17.80;99.90
34953;DHT22;21164;54.378;10.202;2022-08-24T02:34:56;17.80;99.90
34953;DHT22;21164;54.378;10.202;2022-08-24T02:37:22;17.80;99.90
34953;DHT22;21164;54.378;10.202;2022-08-24T02:39:47;17.80;99.90
34953;DHT22;21164;54.378;10.202;2022-08-24T02:42:13;17.90;99.90
34953;DHT22;21164;54.378;10.202;2022-08-24T02:44:40;17.90;99.90
34953;DHT22;21164;54.378;10.202;2022-08-24T02:47:05;17.90;99.90
34953;DHT22;21164;54.378;10.202;2022-08-24T02:49:31;17.90;99.90
34953;DHT22;21164;54.378;10.202;2022-08-24T02:51:57;18.00;99.90
34953;DHT22;21164;54.378;10.202;2022-08-24T02:54:23;18.00;99.90
34953;DHT22;21164;54.378;10.202;2022-08-24T02:56:48;18.00;99.90
34953;DHT22;21164;54.378;10.202;2022-08-24T02:59:15;18.10;99.90
34953;DHT22;21164;54.378;10.202;2022-08-24T03:01:41;18.00;99.90
34953;DHT22;21164;54.378;10.202;2022-08-24T03:04:07;18.10;99.90
34953;DHT22;21164;54.378;10.202;2022-08-24T03:06:33;18.00;99.90
34953;DHT22;21164;54.378;10.202;2022-08-24T03:08:59;18.10;99.90
34953;DHT22;21164;54.378;10.202;2022-08-24T03:11:24;18.00;99.90
34953;DHT22;21164;54.378;10.202;2022-08-24T03:13:50;18.10;99.90
34953;DHT22;21164;54.378;10.202;2022-08-24T03:16:16;18.00;99.90
34953;DHT22;21164;54.378;10.202;2022-08-24T03:18:41;18.00;99.90
34953;DHT22;21164;54.378;10.202;2022-08-24T03:21:08;18.00;99.90
34953;DHT22;21164;54.378;10.202;2022-08-24T03:23:35;17.90;99.90
34953;DHT22;21164;54.378;10.202;2022-08-24T03:26:00;17.90;99.90
34953;DHT22;21164;54.378;10.202;2022-08-24T03:28:26;17.80;99.90
34953;DHT22;21164;54.378;10.202;2022-08-24T03:30:52;17.80;99.90
34953;DHT22;21164;54.378;10.202;2022-08-24T03:33:19;17.80;99.90
34953;DHT22;21164;54.378;10.202;2022-08-24T03:35:44;17.80;99.90
34953;DHT22;21164;54.378;10.202;2022-08-24T03:38:10;17.80;99.90
34953;DHT22;21164;54.378;10.202;2022-08-24T03:40:38;17.70;99.90
34953;DHT22;21164;54.378;10.202;2022-08-24T03:43:05;17.70;99.90
34953;DHT22;21164;54.378;10.202;2022-08-24T03:45:31;17.60;99.90
34953;DHT22;21164;54.378;10.202;2022-08-24T03:47:57;17.70;99.90
34953;DHT22;21164;54.378;10.202;2022-08-24T03:50:24;17.70;99.90
34953;DHT22;21164;54.378;10.202;2022-08-24T03:52:49;17.70;99.90
34953;DHT22;21164;54.378;10.202;2022-08-24T03:55:15;17.80;99.90
34953;DHT22;21164;54.378;10.202;2022-08-24T03:57:41;17.80;99.90
34953;DHT22;21164;54.378;10.202;2022-08-24T04:00:09;17.80;99.90
34953;DHT22;21164;54.378;10.202;2022-08-24T04:02:35;17.80;99.90
34953;DHT22;21164;54.378;10.202;2022-08-24T04:05:01;17.70;99.90
34953;DHT22;21164;54.378;10.202;2022-08-24T04:07:26;17.70;99.90
34953;DHT22;21164;54.378;10.202;2022-08-24T04:09:52;17.70;99.90
34953;DHT22;21164;54.378;10.202;2022-08-24T04:12:18;17.60;99.90
34953;DHT22;21164;54.378;10.202;2022-08-24T04:14:43;17.60;99.90
34953;DHT22;21164;54.378;10.202;2022-08-24T04:17:09;17.50;99.90
34953;DHT22;21164;54.378;10.202;2022-08-24T04:19:37;17.50;99.90
34953;DHT22;21164;54.378;10.202;2022-08-24T04:22:02;17.50;99.90
34953;DHT22;21164;54.378;10.202;2022-08-24T04:24:28;17.50;99.90
34953;DHT22;21164;54.378;10.202;2022-08-24T04:26:54;17.50;99.90
34953;DHT22;21164;54.378;10.202;2022-08-24T04:29:20;17.50;99.90
34953;DHT22;21164;54.378;10.202;2022-08-24T04:31:46;17.50;99.90
34953;DHT22;21164;54.378;10.202;2022-08-24T04:34:12;17.50;99.90
34953;DHT22;21164;54.378;10.202;2022-08-24T04:36:43;17.50;99.90
34953;DHT22;21164;54.378;10.202;2022-08-24T04:39:09;17.40;99.90
34953;DHT22;21164;54.378;10.202;2022-08-24T04:41:35;17.40;99.90
34953;DHT22;21164;54.378;10.202;2022-08-24T04:44:01;17.40;99.90
34953;DHT22;21164;54.378;10.202;2022-08-24T04:46:27;17.40;99.90
34953;DHT22;21164;54.378;10.202;2022-08-24T04:48:53;17.40;99.90
34953;DHT22;21164;54.378;10.202;2022-08-24T04:51:19;17.40;99.90
34953;DHT22;21164;54.378;10.202;2022-08-24T04:53:46;17.30;99.90
34953;DHT22;21164;54.378;10.202;2022-08-24T04:56:15;17.40;99.90
34953;DHT22;21164;54.378;10.202;2022-08-24T04:58:41;17.40;99.90
34953;DHT22;21164;54.378;10.202;2022-08-24T05:01:08;17.40;99.90
34953;DHT22;21164;54.378;10.202;2022-08-24T05:03:34;17.40;99.90
34953;DHT22;21164;54.378;10.202;2022-08-24T05:06:00;17.50;99.90
34953;DHT22;21164;54.378;10.202;2022-08-24T05:08:26;17.50;99.90
34953;DHT22;21164;54.378;10.202;2022-08-24T05:10:51;17.50;99.90
34953;DHT22;21164;54.378;10.202;2022-08-24T05:13:17;17.60;99.90
34953;DHT22;21164;54.378;10.202;2022-08-24T05:15:45;17.60;99.90
34953;DHT22;21164;54.378;10.202;2022-08-24T05:18:12;17.50;99.90
34953;DHT22;21164;54.378;10.202;2022-08-24T05:20:43;17.60;99.90
34953;DHT22;21164;54.378;10.202;2022-08-24T05:23:10;17.70;99.90
34953;DHT22;21164;54.378;10.202;2022-08-24T05:25:36;17.80;99.90
34953;DHT22;21164;54.378;10.202;2022-08-24T05:28:03;17.80;99.90
34953;DHT22;21164;54.378;10.202;2022-08-24T05:30:29;17.90;99.90
34953;DHT22;21164;54.378;10.202;2022-08-24T05:32:55;18.00;99.90
34953;DHT22;21164;54.378;10.202;2022-08-24T05:35:21;18.10;99.90
34953;DHT22;21164;54.378;10.202;2022-08-24T05:37:46;18.20;99.90
34953;DHT22;21164;54.378;10.202;2022-08-24T05:40:14;18.20;99.90
34953;DHT22;21164;54.378;10.202;2022-08-24T05:42:40;18.30;99.90
34953;DHT22;21164;54.378;10.202;2022-08-24T05:45:06;18.30;99.90
34953;DHT22;21164;54.378;10.202;2022-08-24T05:47:33;18.50;99.90
34953;DHT22;21164;54.378;10.202;2022-08-24T05:50:00;18.50;99.90
34953;DHT22;21164;54.378;10.202;2022-08-24T05:52:27;18.60;99.90
34953;DHT22;21164;54.378;10.202;2022-08-24T05:54:55;18.70;99.90
34953;DHT22;21164;54.378;10.202;2022-08-24T05:57:22;18.70;99.90
34953;DHT22;21164;54.378;10.202;2022-08-24T05:59:48;18.70;99.90
34953;DHT22;21164;54.378;10.202;2022-08-24T06:02:15;18.70;99.90
34953;DHT22;21164;54.378;10.202;2022-08-24T06:04:41;18.70;99.90
34953;DHT22;21164;54.378;10.202;2022-08-24T06:07:07;18.70;99.90
34953;DHT22;21164;54.378;10.202;2022-08-24T06:09:37;18.80;99.90
34953;DHT22;21164;54.378;10.202;2022-08-24T06:12:03;18.80;99.90
34953;DHT22;21164;54.378;10.202;2022-08-24T06:14:29;18.80;99.90
34953;DHT22;21164;54.378;10.202;2022-08-24T06:16:55;18.90;99.90
34953;DHT22;21164;54.378;10.202;2022-08-24T06:19:21;19.00;99.90
34953;DHT22;21164;54.378;10.202;2022-08-24T06:21:50;19.10;99.90
34953;DHT22;21164;54.378;10.202;2022-08-24T06:24:16;19.20;99.90
34953;DHT22;21164;54.378;10.202;2022-08-24T06:26:43;19.30;99.90
34953;DHT22;21164;54.378;10.202;2022-08-24T06:29:28;19.40;99.90
34953;DHT22;21164;54.378;10.202;2022-08-24T06:31:54;19.40;99.90
34953;DHT22;21164;54.378;10.202;2022-08-24T06:34:21;19.50;99.90
34953;DHT22;21164;54.378;10.202;2022-08-24T06:36:47;19.50;99.90
34953;DHT22;21164;54.378;10.202;2022-08-24T06:39:13;19.50;99.90
34953;DHT22;21164;54.378;10.202;2022-08-24T06:41:39;19.60;99.90
34953;DHT22;21164;54.378;10.202;2022-08-24T06:44:06;19.60;99.90
34953;DHT22;21164;54.378;10.202;2022-08-24T06:46:32;19.70;99.90
34953;DHT22;21164;54.378;10.202;2022-08-24T06:48:58;19.70;99.90
34953;DHT22;21164;54.378;10.202;2022-08-24T06:51:24;19.80;99.90
34953;DHT22;21164;54.378;10.202;2022-08-24T06:53:50;19.90;99.90
34953;DHT22;21164;54.378;10.202;2022-08-24T06:56:18;19.90;99.90
34953;DHT22;21164;54.378;10.202;2022-08-24T06:58:44;20.10;99.90
34953;DHT22;21164;54.378;10.202;2022-08-24T07:01:16;20.10;99.90
34953;DHT22;21164;54.378;10.202;2022-08-24T07:03:43;20.10;99.90
34953;DHT22;21164;54.378;10.202;2022-08-24T07:06:08;20.20;99.90
34953;DHT22;21164;54.378;10.202;2022-08-24T07:08:35;20.20;99.90
34953;DHT22;21164;54.378;10.202;2022-08-24T07:11:01;20.20;99.90
34953;DHT22;21164;54.378;10.202;2022-08-24T07:13:27;20.30;99.90
34953;DHT22;21164;54.378;10.202;2022-08-24T07:15:55;20.40;99.90
34953;DHT22;21164;54.378;10.202;2022-08-24T07:18:21;20.50;99.90
34953;DHT22;21164;54.378;10.202;2022-08-24T07:20:48;20.50;99.90
34953;DHT22;21164;54.378;10.202;2022-08-24T07:23:14;20.50;99.90
34953;DHT22;21164;54.378;10.202;2022-08-24T07:25:41;20.60;99.90
34953;DHT22;21164;54.378;10.202;2022-08-24T07:28:07;20.60;99.90
34953;DHT22;21164;54.378;10.202;2022-08-24T07:30:33;20.70;99.90
34953;DHT22;21164;54.378;10.202;2022-08-24T07:32:59;20.80;99.90
34953;DHT22;21164;54.378;10.202;2022-08-24T07:35:27;20.80;99.90
34953;DHT22;21164;54.378;10.202;2022-08-24T07:37:53;20.90;99.90
34953;DHT22;21164;54.378;10.202;2022-08-24T07:40:21;20.90;99.90
34953;DHT22;21164;54.378;10.202;2022-08-24T07:42:51;21.00;99.90
34953;DHT22;21164;54.378;10.202;2022-08-24T07:45:18;21.20;99.90
34953;DHT22;21164;54.378;10.202;2022-08-24T07:47:44;21.20;99.90
34953;DHT22;21164;54.378;10.202;2022-08-24T07:50:13;21.30;99.90
34953;DHT22;21164;54.378;10.202;2022-08-24T07:52:39;21.40;99.90
34953;DHT22;21164;54.378;10.202;2022-08-24T07:55:06;21.40;99.90
34953;DHT22;21164;54.378;10.202;2022-08-24T07:57:32;21.40;99.90
34953;DHT22;21164;54.378;10.202;2022-08-24T07:59:59;21.50;99.90
34953;DHT22;21164;54.378;10.202;2022-08-24T08:02:25;21.60;99.90
34953;DHT22;21164;54.378;10.202;2022-08-24T08:04:54;21.60;99.90
34953;DHT22;21164;54.378;10.202;2022-08-24T08:07:20;21.60;99.90
34953;DHT22;21164;54.378;10.202;2022-08-24T08:09:45;21.70;99.90
34953;DHT22;21164;54.378;10.202;2022-08-24T08:12:11;21.70;99.90
34953;DHT22;21164;54.378;10.202;2022-08-24T08:14:37;21.80;99.90
34953;DHT22;21164;54.378;10.202;2022-08-24T08:17:03;21.80;99.90
34953;DHT22;21164;54.378;10.202;2022-08-24T08:19:29;21.80;99.90
34953;DHT22;21164;54.378;10.202;2022-08-24T08:21:54;21.90;99.90
34953;DHT22;21164;54.378;10.202;2022-08-24T08:24:39;21.90;99.90
34953;DHT22;21164;54.378;10.202;2022-08-24T08:27:08;22.00;99.90
34953;DHT22;21164;54.378;10.202;2022-08-24T08:29:35;22.00;99.90
34953;DHT22;21164;54.378;10.202;2022-08-24T08:32:01;22.00;99.90
34953;DHT22;21164;54.378;10.202;2022-08-24T08:34:27;22.10;99.90
34953;DHT22;21164;54.378;10.202;2022-08-24T08:36:54;22.20;99.90
34953;DHT22;21164;54.378;10.202;2022-08-24T08:39:22;22.20;99.90
34953;DHT22;21164;54.378;10.202;2022-08-24T08:41:56;22.30;99.90
34953;DHT22;21164;54.378;10.202;2022-08-24T08:44:47;22.30;99.90
34953;DHT22;21164;54.378;10.202;2022-08-24T08:59:04;22.60;99.90
34953;DHT22;21164;54.378;10.202;2022-08-24T09:26:08;23.50;99.90
34953;DHT22;21164;54.378;10.202;2022-08-24T09:28:44;23.60;99.90
34953;DHT22;21164;54.378;10.202;2022-08-24T09:33:43;23.60;99.90
34953;DHT22;21164;54.378;10.202;2022-08-24T09:36:42;23.70;99.90
34953;DHT22;21164;54.378;10.202;2022-08-24T09:42:13;23.60;99.90
34953;DHT22;21164;54.378;10.202;2022-08-24T10:04:50;24.20;99.90
34953;DHT22;21164;54.378;10.202;2022-08-24T10:12:56;24.40;99.90
34953;DHT22;21164;54.378;10.202;2022-08-24T10:15:33;24.50;99.90
34953;DHT22;21164;54.378;10.202;2022-08-24T10:18:26;24.70;99.90
34953;DHT22;21164;54.378;10.202;2022-08-24T10:21:31;24.70;99.90
34953;DHT22;21164;54.378;10.202;2022-08-24T10:35:15;25.10;99.90
34953;DHT22;21164;54.378;10.202;2022-08-24T10:54:19;25.50;99.90
34953;DHT22;21164;54.378;10.202;2022-08-24T10:56:54;25.70;99.90
34953;DHT22;21164;54.378;10.202;2022-08-24T11:02:48;25.70;99.90
34953;DHT22;21164;54.378;10.202;2022-08-24T11:04:55;25.80;99.90
34953;DHT22;21164;54.378;10.202;2022-08-24T11:07:21;26.00;99.90
34953;DHT22;21164;54.378;10.202;2022-08-24T11:12:36;26.10;99.90
34953;DHT22;21164;54.378;10.202;2022-08-24T11:15:21;26.10;99.90
34953;DHT22;21164;54.378;10.202;2022-08-24T11:18:00;26.30;99.90
34953;DHT22;21164;54.378;10.202;2022-08-24T11:23:08;26.40;99.90
34953;DHT22;21164;54.378;10.202;2022-08-24T11:25:38;26.50;99.90
34953;DHT22;21164;54.378;10.202;2022-08-24T11:28:39;26.60;99.90
34953;DHT22;21164;54.378;10.202;2022-08-24T11:31:12;26.70;99.90
34953;DHT22;21164;54.378;10.202;2022-08-24T11:33:55;26.80;99.90
34953;DHT22;21164;54.378;10.202;2022-08-24T11:36:26;27.00;99.90
34953;DHT22;21164;54.378;10.202;2022-08-24T11:39:31;27.00;99.90
34953;DHT22;21164;54.378;10.202;2022-08-24T11:42:12;27.10;99.90
34953;DHT22;21164;54.378;10.202;2022-08-24T12:00:57;27.70;99.90
34953;DHT22;21164;54.378;10.202;2022-08-24T12:06:30;27.70;99.90
34953;DHT22;21164;54.378;10.202;2022-08-24T12:11:59;28.20;99.90
34953;DHT22;21164;54.378;10.202;2022-08-24T12:14:37;28.30;99.90
34953;DHT22;21164;54.378;10.202;2022-08-24T12:20:06;28.80;99.90
34953;DHT22;21164;54.378;10.202;2022-08-24T12:22:35;28.60;99.90
34953;DHT22;21164;54.378;10.202;2022-08-24T12:25:04;28.80;99.90
34953;DHT22;21164;54.378;10.202;2022-08-24T12:27:51;28.80;99.90
34953;DHT22;21164;54.378;10.202;2022-08-24T12:30:17;29.20;99.90
34953;DHT22;21164;54.378;10.202;2022-08-24T12:32:52;29.10;99.90
34953;DHT22;21164;54.378;10.202;2022-08-24T12:35:41;29.30;99.90
34953;DHT22;21164;54.378;10.202;2022-08-24T12:38:37;29.30;99.90
34953;DHT22;21164;54.378;10.202;2022-08-24T12:43:41;29.20;99.90
34953;DHT22;21164;54.378;10.202;2022-08-24T12:46:10;29.30;99.90
34953;DHT22;21164;54.378;10.202;2022-08-24T12:51:57;29.40;99.90
34953;DHT22;21164;54.378;10.202;2022-08-24T12:55:18;29.40;99.90
34953;DHT22;21164;54.378;10.202;2022-08-24T12:57:57;29.60;99.90
34953;DHT22;21164;54.378;10.202;2022-08-24T13:00:33;29.80;99.90
34953;DHT22;21164;54.378;10.202;2022-08-24T13:03:05;29.70;99.90
34953;DHT22;21164;54.378;10.202;2022-08-24T13:05:45;29.50;99.90
34953;DHT22;21164;54.378;10.202;2022-08-24T13:08:20;29.80;99.90
34953;DHT22;21164;54.378;10.202;2022-08-24T13:10:53;29.60;99.90
34953;DHT22;21164;54.378;10.202;2022-08-24T13:13:38;29.80;99.90
34953;DHT22;21164;54.378;10.202;2022-08-24T13:16:04;29.80;99.90
34953;DHT22;21164;54.378;10.202;2022-08-24T13:18:48;29.80;99.90
34953;DHT22;21164;54.378;10.202;2022-08-24T13:21:40;29.80;99.90
34953;DHT22;21164;54.378;10.202;2022-08-24T13:26:55;30.10;99.90
34953;DHT22;21164;54.378;10.202;2022-08-24T13:29:24;30.20;99.90
34953;DHT22;21164;54.378;10.202;2022-08-24T13:31:54;30.40;99.90
34953;DHT22;21164;54.378;10.202;2022-08-24T13:40:00;30.90;99.90
34953;DHT22;21164;54.378;10.202;2022-08-24T13:45:30;30.70;99.90
34953;DHT22;21164;54.378;10.202;2022-08-24T13:48:19;30.90;99.90
34953;DHT22;21164;54.378;10.202;2022-08-24T14:07:07;31.80;99.90
34953;DHT22;21164;54.378;10.202;2022-08-24T14:09:54;32.30;99.90
34953;DHT22;21164;54.378;10.202;2022-08-24T14:29:29;36.20;99.90
34953;DHT22;21164;54.378;10.202;2022-08-24T14:36:57;36.10;99.90
34953;DHT22;21164;54.378;10.202;2022-08-24T14:52:46;35.80;99.90
34953;DHT22;21164;54.378;10.202;2022-08-24T14:55:33;35.90;99.90
34953;DHT22;21164;54.378;10.202;2022-08-24T15:00:46;35.60;99.90
34953;DHT22;21164;54.378;10.202;2022-08-24T15:03:29;35.80;99.90
34953;DHT22;21164;54.378;10.202;2022-08-24T15:06:14;35.60;99.90
34953;DHT22;21164;54.378;10.202;2022-08-24T15:08:44;35.50;99.90
34953;DHT22;21164;54.378;10.202;2022-08-24T15:11:17;35.00;99.90
34953;DHT22;21164;54.378;10.202;2022-08-24T15:14:00;35.10;99.90
34953;DHT22;21164;54.378;10.202;2022-08-24T15:24:41;34.30;99.90
34953;DHT22;21164;54.378;10.202;2022-08-24T15:30:00;34.60;99.90
34953;DHT22;21164;54.378;10.202;2022-08-24T15:32:42;34.50;99.90
34953;DHT22;21164;54.378;10.202;2022-08-24T15:35:22;34.00;99.90
34953;DHT22;21164;54.378;10.202;2022-08-24T15:37:48;33.90;99.90
34953;DHT22;21164;54.378;10.202;2022-08-24T15:40:24;34.10;99.90
34953;DHT22;21164;54.378;10.202;2022-08-24T15:42:57;34.20;99.90
34953;DHT22;21164;54.378;10.202;2022-08-24T15:45:24;34.20;99.90
34953;DHT22;21164;54.378;10.202;2022-08-24T15:47:51;33.80;99.90
34953;DHT22;21164;54.378;10.202;2022-08-24T15:53:02;33.00;99.90
34953;DHT22;21164;54.378;10.202;2022-08-24T15:55:37;32.90;99.90
34953;DHT22;21164;54.378;10.202;2022-08-24T16:00:44;32.60;99.90
34953;DHT22;21164;54.378;10.202;2022-08-24T16:06:36;32.50;99.90
34953;DHT22;21164;54.378;10.202;2022-08-24T16:11:41;32.40;99.90
34953;DHT22;21164;54.378;10.202;2022-08-24T16:14:13;32.40;99.90
34953;DHT22;21164;54.378;10.202;2022-08-24T16:16:42;32.00;99.90
34953;DHT22;21164;54.378;10.202;2022-08-24T16:19:19;31.80;99.90
34953;DHT22;21164;54.378;10.202;2022-08-24T16:34:33;30.70;99.90
34953;DHT22;21164;54.378;10.202;2022-08-24T16:36:59;30.60;99.90
34953;DHT22;21164;54.378;10.202;2022-08-24T16:39:25;30.40;99.90
34953;DHT22;21164;54.378;10.202;2022-08-24T16:41:57;30.10;99.90
34953;DHT22;21164;54.378;10.202;2022-08-24T16:44:26;29.90;99.90
34953;DHT22;21164;54.378;10.202;2022-08-24T16:46:53;29.80;99.90
34953;DHT22;21164;54.378;10.202;2022-08-24T16:49:18;29.60;99.90
34953;DHT22;21164;54.378;10.202;2022-08-24T16:51:44;29.60;99.90
34953;DHT22;21164;54.378;10.202;2022-08-24T16:54:10;29.60;99.90
34953;DHT22;21164;54.378;10.202;2022-08-24T16:56:35;29.40;99.90
34953;DHT22;21164;54.378;10.202;2022-08-24T16:59:01;29.30;99.90
34953;DHT22;21164;54.378;10.202;2022-08-24T17:01:27;29.30;99.90
34953;DHT22;21164;54.378;10.202;2022-08-24T17:03:53;29.30;99.90
34953;DHT22;21164;54.378;10.202;2022-08-24T17:06:20;29.20;99.90
34953;DHT22;21164;54.378;10.202;2022-08-24T17:08:46;29.10;99.90
34953;DHT22;21164;54.378;10.202;2022-08-24T17:11:13;29.00;99.90
34953;DHT22;21164;54.378;10.202;2022-08-24T17:13:38;29.10;99.90
34953;DHT22;21164;54.378;10.202;2022-08-24T17:16:04;29.20;99.90
34953;DHT22;21164;54.378;10.202;2022-08-24T17:18:33;29.10;99.90
34953;DHT22;21164;54.378;10.202;2022-08-24T17:20:58;29.30;99.90
34953;DHT22;21164;54.378;10.202;2022-08-24T17:23:25;28.90;99.90
34953;DHT22;21164;54.378;10.202;2022-08-24T17:25:51;29.00;99.90
34953;DHT22;21164;54.378;10.202;2022-08-24T17:28:17;28.80;99.90
34953;DHT22;21164;54.378;10.202;2022-08-24T17:30:43;28.50;99.90
34953;DHT22;21164;54.378;10.202;2022-08-24T17:33:09;28.20;99.90
34953;DHT22;21164;54.378;10.202;2022-08-24T17:35:38;27.80;99.90
34953;DHT22;21164;54.378;10.202;2022-08-24T17:38:05;27.60;99.90
34953;DHT22;21164;54.378;10.202;2022-08-24T17:40:32;27.20;99.90
34953;DHT22;21164;54.378;10.202;2022-08-24T17:42:59;26.60;99.90
34953;DHT22;21164;54.378;10.202;2022-08-24T17:45:24;25.90;99.90
34953;DHT22;21164;54.378;10.202;2022-08-24T17:47:51;25.60;99.90
34953;DHT22;21164;54.378;10.202;2022-08-24T17:50:17;25.40;99.90
34953;DHT22;21164;54.378;10.202;2022-08-24T17:52:44;25.10;99.90
34953;DHT22;21164;54.378;10.202;2022-08-24T17:55:12;24.90;99.90
34953;DHT22;21164;54.378;10.202;2022-08-24T17:57:39;24.70;99.90
34953;DHT22;21164;54.378;10.202;2022-08-24T18:00:08;24.60;99.90
34953;DHT22;21164;54.378;10.202;2022-08-24T18:02:34;24.40;99.90
34953;DHT22;21164;54.378;10.202;2022-08-24T18:05:00;24.30;99.90
34953;DHT22;21164;54.378;10.202;2022-08-24T18:07:26;24.20;99.90
34953;DHT22;21164;54.378;10.202;2022-08-24T18:09:55;24.00;99.90
34953;DHT22;21164;54.378;10.202;2022-08-24T18:12:23;23.80;99.90
34953;DHT22;21164;54.378;10.202;2022-08-24T18:14:49;23.70;99.90
34953;DHT22;21164;54.378;10.202;2022-08-24T18:17:21;23.60;99.90
34953;DHT22;21164;54.378;10.202;2022-08-24T18:19:48;23.60;99.90
34953;DHT22;21164;54.378;10.202;2022-08-24T18:22:15;23.50;99.90
34953;DHT22;21164;54.378;10.202;2022-08-24T18:24:41;23.30;99.90
34953;DHT22;21164;54.378;10.202;2022-08-24T18:27:11;23.10;99.90
34953;DHT22;21164;54.378;10.202;2022-08-24T18:29:39;23.00;99.90
34953;DHT22;21164;54.378;10.202;2022-08-24T18:32:06;22.90;99.90
34953;DHT22;21164;54.378;10.202;2022-08-24T18:34:31;22.90;99.90
34953;DHT22;21164;54.378;10.202;2022-08-24T18:36:58;22.80;99.90
34953;DHT22;21164;54.378;10.202;2022-08-24T18:39:24;22.80;99.90
34953;DHT22;21164;54.378;10.202;2022-08-24T18:41:50;22.80;99.90
34953;DHT22;21164;54.378;10.202;2022-08-24T18:44:18;22.80;99.90
34953;DHT22;21164;54.378;10.202;2022-08-24T18:46:44;22.70;99.90
34953;DHT22;21164;54.378;10.202;2022-08-24T18:49:09;22.70;99.90
34953;DHT22;21164;54.378;10.202;2022-08-24T18:51:36;22.70;99.90
34953;DHT22;21164;54.378;10.202;2022-08-24T18:54:16;22.60;99.90
34953;DHT22;21164;54.378;10.202;2022-08-24T18:56:43;22.60;99.90
34953;DHT22;21164;54.378;10.202;2022-08-24T18:59:12;22.50;99.90
34953;DHT22;21164;54.378;10.202;2022-08-24T19:01:40;22.40;99.90
34953;DHT22;21164;54.378;10.202;2022-08-24T19:04:25;22.40;99.90
34953;DHT22;21164;54.378;10.202;2022-08-24T19:06:50;22.40;99.90
34953;DHT22;21164;54.378;10.202;2022-08-24T19:09:16;22.30;99.90
34953;DHT22;21164;54.378;10.202;2022-08-24T19:11:42;22.20;99.90
34953;DHT22;21164;54.378;10.202;2022-08-24T19:14:08;22.10;99.90
34953;DHT22;21164;54.378;10.202;2022-08-24T19:16:34;22.00;99.90
34953;DHT22;21164;54.378;10.202;2022-08-24T19:18:59;21.90;99.90
34953;DHT22;21164;54.378;10.202;2022-08-24T19:21:26;21.90;99.90
34953;DHT22;21164;54.378;10.202;2022-08-24T19:23:53;21.90;99.90
34953;DHT22;21164;54.378;10.202;2022-08-24T19:26:19;21.90;99.90
34953;DHT22;21164;54.378;10.202;2022-08-24T19:28:44;21.90;99.90
34953;DHT22;21164;54.378;10.202;2022-08-24T19:31:11;21.90;99.90